HunTS Point — WDH2432 — position and weather

sailwx.info

Track history (hours):
 
Tides and Currents Weather Stations Pressure Air Temp Water Temp Dewpoint Dewpoint Depression Visibility Wind Speed Wind Dir Waves Ship Positions

HunTS Point

Owner: NEW YORK, CITY OF, BROOKLYN, NY. More information available from US FCC via Universal Licensing System and Coast Guard Vessel Documentation Center.

Last reported at 2017-Oct-18 16:19 UTC. Time now 2017-Oct-19 05:33 UTC.
Position N 40°48' W 073°53'.

Length 88 m; draft 4.3 m.

Type: Tanker. MMSI: 367597530.

Date/timePositionNaut miles runAvg speedWind from/ knotsBaromVisibWave heightAir tempDewpointWater temp
2017-Oct-18 16:19N 40°48' W 073°53'0 0.0
2017-Oct-18 15:55N 40°48' W 073°53'0 0.0
2017-Oct-18 15:22N 40°48' W 073°53'2 0.1
2017-Oct-17 18:35N 40°47' W 073°55'2 7.2
2017-Oct-17 18:17N 40°45' W 073°57'1 4.0
2017-Oct-17 18:00N 40°44' W 073°57'0 0.8
2017-Oct-17 17:23N 40°44' W 073°57'0 0.0
2017-Oct-17 16:59N 40°44' W 073°57'0 0.0
2017-Oct-17 16:30N 40°44' W 073°57'0 0.0
2017-Oct-17 15:59N 40°44' W 073°57'0 0.0
2017-Oct-17 15:30N 40°44' W 073°57'1 2.4
2017-Oct-17 15:00N 40°45' W 073°58'1 0.1
2017-Oct-16 20:48N 40°46' W 073°57'2 5.5
2017-Oct-16 20:30N 40°44' W 073°57'0 0.3
2017-Oct-16 19:31N 40°44' W 073°57'0 0.0
2017-Oct-16 19:27N 40°44' W 073°57'0 0.0
2017-Oct-16 18:59N 40°44' W 073°57'0 0.0
2017-Oct-16 18:28N 40°44' W 073°57'0 0.0
2017-Oct-16 18:00N 40°44' W 073°57'1 2.2
2017-Oct-16 17:30N 40°45' W 073°58'5 4.2
2017-Oct-16 16:20N 40°48' W 073°53'0 0.0
2017-Oct-16 15:58N 40°48' W 073°53'0 0.0
2017-Oct-16 15:30N 40°48' W 073°53'4 0.1
2017-Oct-14 22:47N 40°45' W 073°57'1 4.0
2017-Oct-14 22:30N 40°44' W 073°57'0 0.2
2017-Oct-14 20:34N 40°44' W 073°57'0 0.0
2017-Oct-14 20:11N 40°44' W 073°57'0 0.0
2017-Oct-14 19:55N 40°44' W 073°57'1 1.9
2017-Oct-14 19:30N 40°44' W 073°58'510.2
2017-Oct-14 19:00N 40°40' W 074°02'4 8.5
2017-Oct-14 18:30N 40°39' W 074°08'0 0.1
2017-Oct-14 18:00N 40°38' W 074°08'0 0.0
2017-Oct-14 17:30N 40°38' W 074°08'0 0.0
2017-Oct-14 17:00N 40°38' W 074°08'0 0.0
2017-Oct-14 16:30N 40°38' W 074°08'3 5.1
2017-Oct-14 16:00N 40°39' W 074°04'510.5
2017-Oct-14 15:30N 40°44' W 074°01'611.6
2017-Oct-14 15:00N 40°49' W 073°58'1 1.1
2017-Oct-14 14:30N 40°49' W 073°58'0 0.0
2017-Oct-14 14:00N 40°49' W 073°58'0 0.0
2017-Oct-14 13:30N 40°50' W 073°58'1 1.7
2017-Oct-14 13:00N 40°49' W 073°58'4 7.5
2017-Oct-14 12:30N 40°46' W 074°01'3 6.9
2017-Oct-14 12:00N 40°42' W 074°00'6 0.4
2017-Oct-13 20:52N 40°47' W 073°55'3 7.3
2017-Oct-13 20:30N 40°45' W 073°58'1 2.4
2017-Oct-13 19:59N 40°44' W 073°57'0 0.0
2017-Oct-13 19:27N 40°44' W 073°57'0 0.0
2017-Oct-13 19:00N 40°44' W 073°57'0 0.0
2017-Oct-13 18:29N 40°44' W 073°57'0 0.0
2017-Oct-13 18:00N 40°44' W 073°57'0 0.0
2017-Oct-13 17:30N 40°44' W 073°57'1 2.3
2017-Oct-13 17:00N 40°45' W 073°58'0 0.0
2017-Oct-12 19:54N 40°45' W 073°58'1 2.8
2017-Oct-12 19:29N 40°44' W 073°57'0 0.0
2017-Oct-12 18:57N 40°44' W 073°57'0 0.0
2017-Oct-12 18:30N 40°44' W 073°57'0 0.0
2017-Oct-12 17:58N 40°44' W 073°57'0 0.0
2017-Oct-12 17:18N 40°44' W 073°57'0 0.0
2017-Oct-12 17:00N 40°44' W 073°57'0 0.0
2017-Oct-12 16:30N 40°44' W 073°57'0 0.3
2017-Oct-12 15:57N 40°44' W 073°57'  
Track history (hours):
 
Tides and Currents Weather Stations Pressure Air Temp Water Temp Dewpoint Dewpoint Depression Visibility Wind Speed Wind Dir Waves Ship Positions

HunTS Point

Owner: NEW YORK, CITY OF, BROOKLYN, NY. More information available from US FCC via Universal Licensing System and Coast Guard Vessel Documentation Center.

Last reported at 2017-Oct-18 16:19 UTC. Time now 2017-Oct-19 05:33 UTC.
Position N 40°48' W 073°53'.

Length 88 m; draft 4.3 m.

Type: Tanker. MMSI: 367597530.

Date/timePositionNaut miles runAvg speedWind from/ knotsBaromVisibWave heightAir tempDewpointWater temp
2017-Oct-18 16:19N 40°48' W 073°53'0 0.0
2017-Oct-18 15:55N 40°48' W 073°53'0 0.0
2017-Oct-18 15:22N 40°48' W 073°53'2 0.1
2017-Oct-17 18:35N 40°47' W 073°55'2 7.2
2017-Oct-17 18:17N 40°45' W 073°57'1 4.0
2017-Oct-17 18:00N 40°44' W 073°57'0 0.8
2017-Oct-17 17:23N 40°44' W 073°57'0 0.0
2017-Oct-17 16:59N 40°44' W 073°57'0 0.0
2017-Oct-17 16:30N 40°44' W 073°57'0 0.0
2017-Oct-17 15:59N 40°44' W 073°57'0 0.0
2017-Oct-17 15:30N 40°44' W 073°57'1 2.4
2017-Oct-17 15:00N 40°45' W 073°58'1 0.1
2017-Oct-16 20:48N 40°46' W 073°57'2 5.5
2017-Oct-16 20:30N 40°44' W 073°57'0 0.3
2017-Oct-16 19:31N 40°44' W 073°57'0 0.0
2017-Oct-16 19:27N 40°44' W 073°57'0 0.0
2017-Oct-16 18:59N 40°44' W 073°57'0 0.0
2017-Oct-16 18:28N 40°44' W 073°57'0 0.0
2017-Oct-16 18:00N 40°44' W 073°57'1 2.2
2017-Oct-16 17:30N 40°45' W 073°58'5 4.2
2017-Oct-16 16:20N 40°48' W 073°53'0 0.0
2017-Oct-16 15:58N 40°48' W 073°53'0 0.0
2017-Oct-16 15:30N 40°48' W 073°53'4 0.1
2017-Oct-14 22:47N 40°45' W 073°57'1 4.0
2017-Oct-14 22:30N 40°44' W 073°57'0 0.2
2017-Oct-14 20:34N 40°44' W 073°57'0 0.0
2017-Oct-14 20:11N 40°44' W 073°57'0 0.0
2017-Oct-14 19:55N 40°44' W 073°57'1 1.9
2017-Oct-14 19:30N 40°44' W 073°58'510.2
2017-Oct-14 19:00N 40°40' W 074°02'4 8.5
2017-Oct-14 18:30N 40°39' W 074°08'0 0.1
2017-Oct-14 18:00N 40°38' W 074°08'0 0.0
2017-Oct-14 17:30N 40°38' W 074°08'0 0.0
2017-Oct-14 17:00N 40°38' W 074°08'0 0.0
2017-Oct-14 16:30N 40°38' W 074°08'3 5.1
2017-Oct-14 16:00N 40°39' W 074°04'510.5
2017-Oct-14 15:30N 40°44' W 074°01'611.6
2017-Oct-14 15:00N 40°49' W 073°58'1 1.1
2017-Oct-14 14:30N 40°49' W 073°58'0 0.0
2017-Oct-14 14:00N 40°49' W 073°58'0 0.0
2017-Oct-14 13:30N 40°50' W 073°58'1 1.7
2017-Oct-14 13:00N 40°49' W 073°58'4 7.5
2017-Oct-14 12:30N 40°46' W 074°01'3 6.9
2017-Oct-14 12:00N 40°42' W 074°00'6 0.4
2017-Oct-13 20:52N 40°47' W 073°55'3 7.3
2017-Oct-13 20:30N 40°45' W 073°58'1 2.4
2017-Oct-13 19:59N 40°44' W 073°57'0 0.0
2017-Oct-13 19:27N 40°44' W 073°57'0 0.0
2017-Oct-13 19:00N 40°44' W 073°57'0 0.0
2017-Oct-13 18:29N 40°44' W 073°57'0 0.0
2017-Oct-13 18:00N 40°44' W 073°57'0 0.0
2017-Oct-13 17:30N 40°44' W 073°57'1 2.3
2017-Oct-13 17:00N 40°45' W 073°58'0 0.0
2017-Oct-12 19:54N 40°45' W 073°58'1 2.8
2017-Oct-12 19:29N 40°44' W 073°57'0 0.0
2017-Oct-12 18:57N 40°44' W 073°57'0 0.0
2017-Oct-12 18:30N 40°44' W 073°57'0 0.0
2017-Oct-12 17:58N 40°44' W 073°57'0 0.0
2017-Oct-12 17:18N 40°44' W 073°57'0 0.0
2017-Oct-12 17:00N 40°44' W 073°57'0 0.0
2017-Oct-12 16:30N 40°44' W 073°57'0 0.3
2017-Oct-12 15:57N 40°44' W 073°57'  

Dump ship's entire track history